PWSweather.com
Personal Weather Stations
Station Observations
SUBOTICARS
SuboticaYU

SuboticaYU

Lat: 46.1296717, Lon: 19.641551

Elevation: 361

Station Type: Nexus

http://sumeteo.info

High Low Average
Temperature 38.7°F3.7°C 31.8°F-0.1°C 34.3°F1.3°C
Dew Point 31.8°F-0.1°C 25.7°F-3.5°C 29.2°F-1.6°C
Winds 6.9 mph 11.1 kmh Calm Calm 2.0 mph SE3.2 kmh SE
Wind Gusts 9.2 mph14.8 kmh -- 3.0 mph4.8 kmh
Humidity 90% 72% 82%
Pressure 29.37 in994.6 mb 29.25 in990.5 mb -
Precipitation 0.00 in0.0 mm - -
Hour Temp Dew Point Humidity Winds Wind Gusts Pressure Precip Precip Rate Daily Precip Total
12:00 AM 34.2°F1.2°C 26.4°F-3.1°C 73% 4.6 mph N7.4 kmh N 5.8 mph9.3 kmh 29.37 in994.6 mb - 0.00 in0.0 mm 0.00 in0.0 mm
12:10 AM 34.2°F1.2°C 26.4°F-3.1°C 73% 2.3 mph NNW3.7 kmh NNW 3.5 mph5.6 kmh 29.37 in994.6 mb - 0.00 in0.0 mm 0.00 in0.0 mm
12:15 AM 34.2°F1.2°C 26.4°F-3.1°C 73% 4.6 mph NNW7.4 kmh NNW 3.5 mph5.6 kmh 29.37 in994.6 mb - 0.00 in0.0 mm 0.00 in0.0 mm
12:20 AM 34.2°F1.2°C 26.7°F-2.9°C 74% 4.6 mph NNW7.4 kmh NNW 4.6 mph7.4 kmh 29.37 in994.6 mb - 0.00 in0.0 mm 0.00 in0.0 mm
12:25 AM 34.0°F1.1°C 26.6°F-3.0°C 74% 4.6 mph NNW7.4 kmh NNW 4.6 mph7.4 kmh 29.37 in994.6 mb - 0.00 in0.0 mm 0.00 in0.0 mm
12:30 AM 34.2°F1.2°C 26.4°F-3.1°C 73% 3.5 mph NW5.6 kmh NW 3.5 mph5.6 kmh 29.36 in994.2 mb - 0.00 in0.0 mm 0.00 in0.0 mm
12:35 AM 34.0°F1.1°C 26.2°F-3.2°C 73% 4.6 mph NNW7.4 kmh NNW 5.8 mph9.3 kmh 29.36 in994.2 mb - 0.00 in0.0 mm 0.00 in0.0 mm
12:40 AM 34.2°F1.2°C 26.1°F-3.3°C 72% 4.6 mph NNW7.4 kmh NNW 5.8 mph9.3 kmh 29.36 in994.2 mb - 0.00 in0.0 mm 0.00 in0.0 mm
12:45 AM 34.2°F1.2°C 26.1°F-3.3°C 72% 5.8 mph N9.3 kmh N 9.2 mph14.8 kmh 29.35 in993.9 mb - 0.00 in0.0 mm 0.00 in0.0 mm
12:50 AM 34.2°F1.2°C 26.1°F-3.3°C 72% 5.8 mph N9.3 kmh N 6.9 mph11.1 kmh 29.35 in993.9 mb - 0.00 in0.0 mm 0.00 in0.0 mm
12:55 AM 34.2°F1.2°C 26.1°F-3.3°C 72% 6.9 mph NNE11.1 kmh NNE 6.9 mph11.1 kmh 29.35 in993.9 mb - 0.00 in0.0 mm 0.00 in0.0 mm
01:00 AM 34.0°F1.1°C 25.9°F-3.4°C 72% 5.8 mph NW9.3 kmh NW 5.8 mph9.3 kmh 29.35 in993.9 mb - 0.00 in0.0 mm 0.00 in0.0 mm
01:10 AM 33.8°F1.0°C 25.7°F-3.5°C 72% 3.5 mph NW5.6 kmh NW 5.8 mph9.3 kmh 29.35 in993.9 mb - 0.00 in0.0 mm 0.00 in0.0 mm
01:15 AM 33.8°F1.0°C 25.7°F-3.5°C 72% 4.6 mph N7.4 kmh N 3.5 mph5.6 kmh 29.34 in993.6 mb - 0.00 in0.0 mm 0.00 in0.0 mm
01:20 AM 33.8°F1.0°C 25.7°F-3.5°C 72% 3.5 mph N5.6 kmh N 5.8 mph9.3 kmh 29.34 in993.6 mb - 0.00 in0.0 mm 0.00 in0.0 mm
01:25 AM 33.8°F1.0°C 25.7°F-3.5°C 72% 4.6 mph NNW7.4 kmh NNW 4.6 mph7.4 kmh 29.34 in993.6 mb - 0.00 in0.0 mm 0.00 in0.0 mm
01:30 AM 33.8°F1.0°C 26.1°F-3.3°C 73% 3.5 mph NNW5.6 kmh NNW 4.6 mph7.4 kmh 29.34 in993.6 mb - 0.00 in0.0 mm 0.00 in0.0 mm
01:35 AM 33.4°F0.8°C 26.0°F-3.3°C 74% 3.5 mph NW5.6 kmh NW 5.8 mph9.3 kmh 29.34 in993.6 mb - 0.00 in0.0 mm 0.00 in0.0 mm
01:40 AM 33.4°F0.8°C 26.0°F-3.3°C 74% 3.5 mph NNE5.6 kmh NNE 4.6 mph7.4 kmh 29.34 in993.6 mb - 0.00 in0.0 mm 0.00 in0.0 mm
01:45 AM 33.3°F0.7°C 26.2°F-3.2°C 75% 3.5 mph N5.6 kmh N 3.5 mph5.6 kmh 29.34 in993.6 mb - 0.00 in0.0 mm 0.00 in0.0 mm
01:50 AM 33.3°F0.7°C 26.2°F-3.2°C 75% 3.5 mph NNE5.6 kmh NNE 5.8 mph9.3 kmh 29.34 in993.6 mb - 0.00 in0.0 mm 0.00 in0.0 mm
01:55 AM 33.3°F0.7°C 26.5°F-3.1°C 76% 3.5 mph NNW5.6 kmh NNW 2.3 mph3.7 kmh 29.34 in993.6 mb - 0.00 in0.0 mm 0.00 in0.0 mm
02:00 AM 33.1°F0.6°C 26.3°F-3.2°C 76% 3.5 mph NNW5.6 kmh NNW 5.8 mph9.3 kmh 29.33 in993.2 mb - 0.00 in0.0 mm 0.00 in0.0 mm
02:10 AM 32.9°F0.5°C 27.4°F-2.6°C 80% 3.5 mph NNE5.6 kmh NNE 4.6 mph7.4 kmh 29.33 in993.2 mb - 0.00 in0.0 mm 0.00 in0.0 mm
02:15 AM 32.9°F0.5°C 27.4°F-2.6°C 80% 4.6 mph NNE7.4 kmh NNE 4.6 mph7.4 kmh 29.33 in993.2 mb - 0.00 in0.0 mm 0.00 in0.0 mm
02:20 AM 32.7°F0.4°C 27.2°F-2.7°C 80% 2.3 mph NNE3.7 kmh NNE 2.3 mph3.7 kmh 29.33 in993.2 mb - 0.00 in0.0 mm 0.00 in0.0 mm
02:25 AM 32.7°F0.4°C 27.2°F-2.7°C 80% 3.5 mph NE5.6 kmh NE 3.5 mph5.6 kmh 29.33 in993.2 mb - 0.00 in0.0 mm 0.00 in0.0 mm
02:30 AM 32.7°F0.4°C 27.2°F-2.7°C 80% 3.5 mph NNE5.6 kmh NNE 4.6 mph7.4 kmh 29.32 in992.9 mb - 0.00 in0.0 mm 0.00 in0.0 mm
02:35 AM 32.7°F0.4°C 27.2°F-2.7°C 80% 3.5 mph NNE5.6 kmh NNE 4.6 mph7.4 kmh 29.32 in992.9 mb - 0.00 in0.0 mm 0.00 in0.0 mm
02:40 AM 32.5°F0.3°C 27.4°F-2.6°C 81% 4.6 mph E7.4 kmh E 5.8 mph9.3 kmh 29.32 in992.9 mb - 0.00 in0.0 mm 0.00 in0.0 mm
02:45 AM 32.5°F0.3°C 27.1°F-2.7°C 80% 3.5 mph NNW5.6 kmh NNW 4.6 mph7.4 kmh 29.32 in992.9 mb - 0.00 in0.0 mm 0.00 in0.0 mm
02:50 AM 32.5°F0.3°C 27.4°F-2.6°C 81% 3.5 mph NNE5.6 kmh NNE 5.8 mph9.3 kmh 29.32 in992.9 mb - 0.00 in0.0 mm 0.00 in0.0 mm
02:55 AM 32.5°F0.3°C 27.1°F-2.7°C 80% 2.3 mph ENE3.7 kmh ENE 3.5 mph5.6 kmh 29.32 in992.9 mb - 0.00 in0.0 mm 0.00 in0.0 mm
03:00 AM 32.4°F0.2°C 26.6°F-3.0°C 79% 3.5 mph ENE5.6 kmh ENE 4.6 mph7.4 kmh 29.32 in992.9 mb - 0.00 in0.0 mm 0.00 in0.0 mm
03:10 AM 32.4°F0.2°C 27.2°F-2.7°C 81% 3.5 mph N5.6 kmh N 3.5 mph5.6 kmh 29.32 in992.9 mb - 0.00 in0.0 mm 0.00 in0.0 mm
03:15 AM 32.4°F0.2°C 27.5°F-2.5°C 82% 3.5 mph NNE5.6 kmh NNE 4.6 mph7.4 kmh 29.31 in992.6 mb - 0.00 in0.0 mm 0.00 in0.0 mm
03:20 AM 32.4°F0.2°C 27.8°F-2.3°C 83% 3.5 mph NE5.6 kmh NE 4.6 mph7.4 kmh 29.31 in992.6 mb - 0.00 in0.0 mm 0.00 in0.0 mm
03:25 AM 32.4°F0.2°C 27.8°F-2.3°C 83% 2.3 mph NNE3.7 kmh NNE 3.5 mph5.6 kmh 29.31 in992.6 mb - 0.00 in0.0 mm 0.00 in0.0 mm
03:30 AM 32.4°F0.2°C 27.8°F-2.3°C 83% 2.3 mph N3.7 kmh N 2.3 mph3.7 kmh 29.31 in992.6 mb - 0.00 in0.0 mm 0.00 in0.0 mm
03:35 AM 32.4°F0.2°C 27.8°F-2.3°C 83% 2.3 mph N3.7 kmh N 3.5 mph5.6 kmh 29.31 in992.6 mb - 0.00 in0.0 mm 0.00 in0.0 mm
03:40 AM 32.4°F0.2°C 28.1°F-2.2°C 84% 3.5 mph NNE5.6 kmh NNE 3.5 mph5.6 kmh 29.31 in992.6 mb - 0.00 in0.0 mm 0.00 in0.0 mm
03:45 AM 32.4°F0.2°C 28.1°F-2.2°C 84% 2.3 mph N3.7 kmh N 4.6 mph7.4 kmh 29.31 in992.6 mb - 0.00 in0.0 mm 0.00 in0.0 mm
03:50 AM 32.4°F0.2°C 27.8°F-2.3°C 83% 2.3 mph NNE3.7 kmh NNE 3.5 mph5.6 kmh 29.31 in992.6 mb - 0.00 in0.0 mm 0.00 in0.0 mm
03:55 AM 32.4°F0.2°C 27.8°F-2.3°C 83% 2.3 mph NE3.7 kmh NE 3.5 mph5.6 kmh 29.31 in992.6 mb - 0.00 in0.0 mm 0.00 in0.0 mm
04:00 AM 32.4°F0.2°C 28.1°F-2.2°C 84% 2.3 mph N3.7 kmh N 2.3 mph3.7 kmh 29.30 in992.2 mb - 0.00 in0.0 mm 0.00 in0.0 mm
04:10 AM 32.2°F0.1°C 27.9°F-2.3°C 84% 3.5 mph NNW5.6 kmh NNW 3.5 mph5.6 kmh 29.30 in992.2 mb - 0.00 in0.0 mm 0.00 in0.0 mm
04:15 AM 32.2°F0.1°C 27.9°F-2.3°C 84% 2.3 mph NNE3.7 kmh NNE 3.5 mph5.6 kmh 29.30 in992.2 mb - 0.00 in0.0 mm 0.00 in0.0 mm
04:20 AM 32.2°F0.1°C 27.9°F-2.3°C 84% 2.3 mph NNE3.7 kmh NNE 3.5 mph5.6 kmh 29.30 in992.2 mb - 0.00 in0.0 mm 0.00 in0.0 mm
04:25 AM 32.2°F0.1°C 28.5°F-1.9°C 86% 2.3 mph NNE3.7 kmh NNE 3.5 mph5.6 kmh 29.30 in992.2 mb - 0.00 in0.0 mm 0.00 in0.0 mm
04:30 AM 32.2°F0.1°C 28.5°F-1.9°C 86% 2.3 mph NNE3.7 kmh NNE 2.3 mph3.7 kmh 29.30 in992.2 mb - 0.00 in0.0 mm 0.00 in0.0 mm
04:35 AM 32.2°F0.1°C 28.5°F-1.9°C 86% 2.3 mph NNE3.7 kmh NNE 3.5 mph5.6 kmh 29.30 in992.2 mb - 0.00 in0.0 mm 0.00 in0.0 mm
04:40 AM 32.2°F0.1°C 28.5°F-1.9°C 86% 3.5 mph NNE5.6 kmh NNE 2.3 mph3.7 kmh 29.30 in992.2 mb - 0.00 in0.0 mm 0.00 in0.0 mm
04:45 AM 32.2°F0.1°C 28.2°F-2.1°C 85% 2.3 mph NNE3.7 kmh NNE 2.3 mph3.7 kmh 29.29 in991.9 mb - 0.00 in0.0 mm 0.00 in0.0 mm
04:50 AM 32.2°F0.1°C 27.9°F-2.3°C 84% Calm Calm 1.2 mph1.9 kmh 29.29 in991.9 mb - 0.00 in0.0 mm 0.00 in0.0 mm
04:55 AM 32.2°F0.1°C 27.6°F-2.4°C 83% 1.2 mph NE1.9 kmh NE 2.3 mph3.7 kmh 29.29 in991.9 mb - 0.00 in0.0 mm 0.00 in0.0 mm
05:00 AM 32.2°F0.1°C 27.6°F-2.4°C 83% 2.3 mph N3.7 kmh N 2.3 mph3.7 kmh 29.29 in991.9 mb - 0.00 in0.0 mm 0.00 in0.0 mm
05:10 AM 32.0°F0.0°C 27.7°F-2.4°C 84% 1.2 mph ENE1.9 kmh ENE 1.2 mph1.9 kmh 29.29 in991.9 mb - 0.00 in0.0 mm 0.00 in0.0 mm
05:15 AM 32.0°F0.0°C 27.7°F-2.4°C 84% 2.3 mph NNE3.7 kmh NNE 2.3 mph3.7 kmh 29.29 in991.9 mb - 0.00 in0.0 mm 0.00 in0.0 mm
05:20 AM 32.0°F0.0°C 27.7°F-2.4°C 84% 2.3 mph NNW3.7 kmh NNW 2.3 mph3.7 kmh 29.29 in991.9 mb - 0.00 in0.0 mm 0.00 in0.0 mm
05:25 AM 32.0°F0.0°C 27.7°F-2.4°C 84% 1.2 mph NNE1.9 kmh NNE 1.2 mph1.9 kmh 29.29 in991.9 mb - 0.00 in0.0 mm 0.00 in0.0 mm
05:30 AM 32.0°F0.0°C 27.7°F-2.4°C 84% 2.3 mph NNE3.7 kmh NNE 3.5 mph5.6 kmh 29.28 in991.5 mb - 0.00 in0.0 mm 0.00 in0.0 mm
05:35 AM 32.0°F0.0°C 27.7°F-2.4°C 84% 1.2 mph NNE1.9 kmh NNE 3.5 mph5.6 kmh 29.28 in991.5 mb - 0.00 in0.0 mm 0.00 in0.0 mm
05:40 AM 32.0°F0.0°C 27.7°F-2.4°C 84% 1.2 mph N1.9 kmh N 2.3 mph3.7 kmh 29.28 in991.5 mb - 0.00 in0.0 mm 0.00 in0.0 mm
05:45 AM 32.0°F0.0°C 27.7°F-2.4°C 84% 1.2 mph NNE1.9 kmh NNE 1.2 mph1.9 kmh 29.28 in991.5 mb - 0.00 in0.0 mm 0.00 in0.0 mm
05:50 AM 32.0°F0.0°C 27.7°F-2.4°C 84% 1.2 mph 1.9 kmh 1.2 mph1.9 kmh 29.28 in991.5 mb - 0.00 in0.0 mm 0.00 in0.0 mm
05:55 AM 32.0°F0.0°C 27.7°F-2.4°C 84% 1.2 mph 1.9 kmh 1.2 mph1.9 kmh 29.28 in991.5 mb - 0.00 in0.0 mm 0.00 in0.0 mm
06:00 AM 32.0°F0.0°C 27.7°F-2.4°C 84% 1.2 mph NNW1.9 kmh NNW 1.2 mph1.9 kmh 29.28 in991.5 mb - 0.00 in0.0 mm 0.00 in0.0 mm
06:10 AM 32.0°F0.0°C 28.3°F-2.1°C 86% 2.3 mph NNW3.7 kmh NNW 2.3 mph3.7 kmh 29.28 in991.5 mb - 0.00 in0.0 mm 0.00 in0.0 mm
06:15 AM 32.0°F0.0°C 28.3°F-2.1°C 86% 2.3 mph NNW3.7 kmh NNW 2.3 mph3.7 kmh 29.28 in991.5 mb - 0.00 in0.0 mm 0.00 in0.0 mm
06:20 AM 32.0°F0.0°C 28.6°F-1.9°C 87% Calm Calm -- 29.28 in991.5 mb - 0.00 in0.0 mm 0.00 in0.0 mm
06:25 AM 32.0°F0.0°C 28.3°F-2.1°C 86% 1.2 mph NNW1.9 kmh NNW 2.3 mph3.7 kmh 29.28 in991.5 mb - 0.00 in0.0 mm 0.00 in0.0 mm
06:30 AM 32.0°F0.0°C 28.6°F-1.9°C 87% 2.3 mph NNW3.7 kmh NNW 2.3 mph3.7 kmh 29.28 in991.5 mb - 0.00 in0.0 mm 0.00 in0.0 mm
06:35 AM 32.0°F0.0°C 28.6°F-1.9°C 87% Calm Calm -- 29.28 in991.5 mb - 0.00 in0.0 mm 0.00 in0.0 mm
06:40 AM 32.0°F0.0°C 28.3°F-2.1°C 86% 1.2 mph NNW1.9 kmh NNW 2.3 mph3.7 kmh 29.28 in991.5 mb - 0.00 in0.0 mm 0.00 in0.0 mm
06:45 AM 32.0°F0.0°C 28.3°F-2.1°C 86% 1.2 mph NNW1.9 kmh NNW 2.3 mph3.7 kmh 29.29 in991.9 mb - 0.00 in0.0 mm 0.00 in0.0 mm
06:50 AM 32.0°F0.0°C 28.3°F-2.1°C 86% 2.3 mph NNW3.7 kmh NNW 2.3 mph3.7 kmh 29.29 in991.9 mb - 0.00 in0.0 mm 0.00 in0.0 mm
06:55 AM 32.0°F0.0°C 28.6°F-1.9°C 87% 2.3 mph NNE3.7 kmh NNE 2.3 mph3.7 kmh 29.29 in991.9 mb - 0.00 in0.0 mm 0.00 in0.0 mm
07:00 AM 32.0°F0.0°C 28.8°F-1.8°C 88% 2.3 mph NNW3.7 kmh NNW 2.3 mph3.7 kmh 29.28 in991.5 mb - 0.00 in0.0 mm 0.00 in0.0 mm
07:10 AM 32.0°F0.0°C 29.1°F-1.6°C 89% 1.2 mph NNW1.9 kmh NNW 2.3 mph3.7 kmh 29.28 in991.5 mb - 0.00 in0.0 mm 0.00 in0.0 mm
07:15 AM 32.0°F0.0°C 29.1°F-1.6°C 89% 1.2 mph NNW1.9 kmh NNW 1.2 mph1.9 kmh 29.28 in991.5 mb - 0.00 in0.0 mm 0.00 in0.0 mm
07:20 AM 31.8°F-0.1°C 28.7°F-1.8°C 88% 1.2 mph NNE1.9 kmh NNE 1.2 mph1.9 kmh 29.28 in991.5 mb - 0.00 in0.0 mm 0.00 in0.0 mm
07:25 AM 32.0°F0.0°C 28.8°F-1.8°C 88% 2.3 mph NNE3.7 kmh NNE 2.3 mph3.7 kmh 29.28 in991.5 mb - 0.00 in0.0 mm 0.00 in0.0 mm
07:30 AM 32.0°F0.0°C 28.8°F-1.8°C 88% 1.2 mph NNW1.9 kmh NNW 1.2 mph1.9 kmh 29.28 in991.5 mb - 0.00 in0.0 mm 0.00 in0.0 mm
07:35 AM 32.0°F0.0°C 28.8°F-1.8°C 88% 1.2 mph NNW1.9 kmh NNW 2.3 mph3.7 kmh 29.28 in991.5 mb - 0.00 in0.0 mm 0.00 in0.0 mm
07:40 AM 32.0°F0.0°C 28.8°F-1.8°C 88% 3.5 mph NNE5.6 kmh NNE 3.5 mph5.6 kmh 29.28 in991.5 mb - 0.00 in0.0 mm 0.00 in0.0 mm
07:45 AM 32.0°F0.0°C 28.8°F-1.8°C 88% 1.2 mph N1.9 kmh N 2.3 mph3.7 kmh 29.27 in991.2 mb - 0.00 in0.0 mm 0.00 in0.0 mm
07:50 AM 32.0°F0.0°C 29.1°F-1.6°C 89% 2.3 mph NNW3.7 kmh NNW 2.3 mph3.7 kmh 29.27 in991.2 mb - 0.00 in0.0 mm 0.00 in0.0 mm
07:55 AM 32.0°F0.0°C 29.4°F-1.4°C 90% 2.3 mph NNW3.7 kmh NNW 3.5 mph5.6 kmh 29.27 in991.2 mb - 0.00 in0.0 mm 0.00 in0.0 mm
08:00 AM 32.0°F0.0°C 29.4°F-1.4°C 90% 2.3 mph N3.7 kmh N 3.5 mph5.6 kmh 29.27 in991.2 mb - 0.00 in0.0 mm 0.00 in0.0 mm
08:10 AM 32.0°F0.0°C 29.1°F-1.6°C 89% 3.5 mph NNE5.6 kmh NNE 3.5 mph5.6 kmh 29.27 in991.2 mb - 0.00 in0.0 mm 0.00 in0.0 mm
08:15 AM 32.2°F0.1°C 29.3°F-1.5°C 89% 2.3 mph NE3.7 kmh NE 2.3 mph3.7 kmh 29.27 in991.2 mb - 0.00 in0.0 mm 0.00 in0.0 mm
08:20 AM 32.2°F0.1°C 29.3°F-1.5°C 89% 1.2 mph NNE1.9 kmh NNE 1.2 mph1.9 kmh 29.27 in991.2 mb - 0.00 in0.0 mm 0.00 in0.0 mm
08:25 AM 32.4°F0.2°C 29.5°F-1.4°C 89% 1.2 mph NNE1.9 kmh NNE 2.3 mph3.7 kmh 29.27 in991.2 mb - 0.00 in0.0 mm 0.00 in0.0 mm
08:30 AM 32.4°F0.2°C 29.5°F-1.4°C 89% 1.2 mph N1.9 kmh N 2.3 mph3.7 kmh 29.28 in991.5 mb - 0.00 in0.0 mm 0.00 in0.0 mm
08:35 AM 32.4°F0.2°C 29.5°F-1.4°C 89% 2.3 mph NNE3.7 kmh NNE 3.5 mph5.6 kmh 29.28 in991.5 mb - 0.00 in0.0 mm 0.00 in0.0 mm
08:40 AM 32.5°F0.3°C 29.7°F-1.3°C 89% 2.3 mph NNE3.7 kmh NNE 3.5 mph5.6 kmh 29.28 in991.5 mb - 0.00 in0.0 mm 0.00 in0.0 mm
08:45 AM 32.6°F0.3°C 29.7°F-1.3°C 89% 2.3 mph NE3.7 kmh NE 3.5 mph5.6 kmh 29.28 in991.5 mb - 0.00 in0.0 mm 0.00 in0.0 mm
08:50 AM 32.9°F0.5°C 30.0°F-1.1°C 89% 3.5 mph ENE5.6 kmh ENE 3.5 mph5.6 kmh 29.28 in991.5 mb - 0.00 in0.0 mm 0.00 in0.0 mm
08:55 AM 32.9°F0.5°C 30.3°F-0.9°C 90% 2.3 mph NNE3.7 kmh NNE 2.3 mph3.7 kmh 29.28 in991.5 mb - 0.00 in0.0 mm 0.00 in0.0 mm
09:00 AM 33.1°F0.6°C 30.5°F-0.8°C 90% 3.5 mph N5.6 kmh N 3.5 mph5.6 kmh 29.29 in991.9 mb - 0.00 in0.0 mm 0.00 in0.0 mm
09:10 AM 33.3°F0.7°C 30.4°F-0.9°C 89% 2.3 mph NE3.7 kmh NE 3.5 mph5.6 kmh 29.29 in991.9 mb - 0.00 in0.0 mm 0.00 in0.0 mm
09:15 AM 33.3°F0.7°C 30.4°F-0.9°C 89% 2.3 mph NNE3.7 kmh NNE 3.5 mph5.6 kmh 29.28 in991.5 mb - 0.00 in0.0 mm 0.00 in0.0 mm
09:20 AM 33.4°F0.8°C 30.5°F-0.8°C 89% 2.3 mph NE3.7 kmh NE 2.3 mph3.7 kmh 29.28 in991.5 mb - 0.00 in0.0 mm 0.00 in0.0 mm
09:25 AM 33.6°F0.9°C 30.4°F-0.9°C 88% 2.3 mph NNE3.7 kmh NNE 3.5 mph5.6 kmh 29.28 in991.5 mb - 0.00 in0.0 mm 0.00 in0.0 mm
09:30 AM 33.8°F1.0°C 30.3°F-0.9°C 87% 3.5 mph NE5.6 kmh NE 3.5 mph5.6 kmh 29.28 in991.5 mb - 0.00 in0.0 mm 0.00 in0.0 mm
09:35 AM 33.8°F1.0°C 30.3°F-0.9°C 87% 3.5 mph N5.6 kmh N 4.6 mph7.4 kmh 29.28 in991.5 mb - 0.00 in0.0 mm 0.00 in0.0 mm
09:40 AM 34.0°F1.1°C 30.2°F-1.0°C 86% 2.3 mph NE3.7 kmh NE 2.3 mph3.7 kmh 29.28 in991.5 mb - 0.00 in0.0 mm 0.00 in0.0 mm
09:45 AM 34.2°F1.2°C 30.4°F-0.9°C 86% 2.3 mph NNE3.7 kmh NNE 2.3 mph3.7 kmh 29.28 in991.5 mb - 0.00 in0.0 mm 0.00 in0.0 mm
09:50 AM 34.2°F1.2°C 30.4°F-0.9°C 86% 1.2 mph N1.9 kmh N 1.2 mph1.9 kmh 29.28 in991.5 mb - 0.00 in0.0 mm 0.00 in0.0 mm
09:55 AM 34.3°F1.3°C 30.0°F-1.1°C 84% 1.2 mph NE1.9 kmh NE 1.2 mph1.9 kmh 29.28 in991.5 mb - 0.00 in0.0 mm 0.00 in0.0 mm
10:00 AM 34.5°F1.4°C 30.2°F-1.0°C 84% 2.3 mph ENE3.7 kmh ENE 2.3 mph3.7 kmh 29.28 in991.5 mb - 0.00 in0.0 mm 0.00 in0.0 mm
10:10 AM 34.6°F1.4°C 30.0°F-1.1°C 83% 1.2 mph ENE1.9 kmh ENE 2.3 mph3.7 kmh 29.28 in991.5 mb - 0.00 in0.0 mm 0.00 in0.0 mm
10:15 AM 34.9°F1.6°C 30.2°F-1.0°C 83% 2.3 mph ENE3.7 kmh ENE 2.3 mph3.7 kmh 29.29 in991.9 mb - 0.00 in0.0 mm 0.00 in0.0 mm
10:20 AM 34.9°F1.6°C 30.2°F-1.0°C 83% 2.3 mph NE3.7 kmh NE 3.5 mph5.6 kmh 29.29 in991.9 mb - 0.00 in0.0 mm 0.00 in0.0 mm
10:25 AM 34.9°F1.6°C 30.2°F-1.0°C 83% 3.5 mph ESE5.6 kmh ESE 3.5 mph5.6 kmh 29.29 in991.9 mb - 0.00 in0.0 mm 0.00 in0.0 mm
10:30 AM 34.9°F1.6°C 30.2°F-1.0°C 83% 3.5 mph ESE5.6 kmh ESE 3.5 mph5.6 kmh 29.28 in991.5 mb - 0.00 in0.0 mm 0.00 in0.0 mm
10:35 AM 35.0°F1.7°C 30.4°F-0.9°C 83% 3.5 mph ESE5.6 kmh ESE 3.5 mph5.6 kmh 29.28 in991.5 mb - 0.00 in0.0 mm 0.00 in0.0 mm
10:40 AM 35.2°F1.8°C 30.6°F-0.8°C 83% 2.3 mph E3.7 kmh E 3.5 mph5.6 kmh 29.28 in991.5 mb - 0.00 in0.0 mm 0.00 in0.0 mm
10:45 AM 35.2°F1.8°C 30.6°F-0.8°C 83% 3.5 mph E5.6 kmh E 3.5 mph5.6 kmh 29.28 in991.5 mb - 0.00 in0.0 mm 0.00 in0.0 mm
10:50 AM 35.2°F1.8°C 30.6°F-0.8°C 83% 1.2 mph NE1.9 kmh NE 2.3 mph3.7 kmh 29.28 in991.5 mb - 0.00 in0.0 mm 0.00 in0.0 mm
10:55 AM 35.6°F2.0°C 30.9°F-0.6°C 83% 2.3 mph ENE3.7 kmh ENE 3.5 mph5.6 kmh 29.28 in991.5 mb - 0.00 in0.0 mm 0.00 in0.0 mm
11:00 AM 35.6°F2.0°C 30.9°F-0.6°C 83% 2.3 mph E3.7 kmh E 3.5 mph5.6 kmh 29.28 in991.5 mb - 0.00 in0.0 mm 0.00 in0.0 mm
11:10 AM 36.0°F2.2°C 31.0°F-0.6°C 82% 3.5 mph ESE5.6 kmh ESE 3.5 mph5.6 kmh 29.28 in991.5 mb - 0.00 in0.0 mm 0.00 in0.0 mm
11:15 AM 36.1°F2.3°C 31.2°F-0.4°C 82% 3.5 mph ESE5.6 kmh ESE 3.5 mph5.6 kmh 29.28 in991.5 mb - 0.00 in0.0 mm 0.00 in0.0 mm
11:20 AM 36.1°F2.3°C 31.2°F-0.4°C 82% 3.5 mph ESE5.6 kmh ESE 3.5 mph5.6 kmh 29.28 in991.5 mb - 0.00 in0.0 mm 0.00 in0.0 mm
11:25 AM 36.3°F2.4°C 31.4°F-0.3°C 82% 3.5 mph ESE5.6 kmh ESE 3.5 mph5.6 kmh 29.28 in991.5 mb - 0.00 in0.0 mm 0.00 in0.0 mm
11:30 AM 36.3°F2.4°C 31.0°F-0.6°C 81% 3.5 mph SSE5.6 kmh SSE 3.5 mph5.6 kmh 29.27 in991.2 mb - 0.00 in0.0 mm 0.00 in0.0 mm
11:35 AM 36.6°F2.6°C 31.3°F-0.4°C 81% 3.5 mph SSE5.6 kmh SSE 3.5 mph5.6 kmh 29.27 in991.2 mb - 0.00 in0.0 mm 0.00 in0.0 mm
11:40 AM 36.7°F2.6°C 31.4°F-0.3°C 81% 2.3 mph S3.7 kmh S 2.3 mph3.7 kmh 29.27 in991.2 mb - 0.00 in0.0 mm 0.00 in0.0 mm
11:45 AM 37.0°F2.8°C 31.4°F-0.3°C 80% 2.3 mph ESE3.7 kmh ESE 3.5 mph5.6 kmh 29.27 in991.2 mb - 0.00 in0.0 mm 0.00 in0.0 mm
11:50 AM 37.0°F2.8°C 31.4°F-0.3°C 80% 2.3 mph E3.7 kmh E 3.5 mph5.6 kmh 29.27 in991.2 mb - 0.00 in0.0 mm 0.00 in0.0 mm
11:55 AM 37.4°F3.0°C 31.8°F-0.1°C 80% 2.3 mph S3.7 kmh S 2.3 mph3.7 kmh 29.27 in991.2 mb - 0.00 in0.0 mm 0.00 in0.0 mm
12:00 PM 37.4°F3.0°C 31.5°F-0.3°C 79% 1.2 mph S1.9 kmh S 1.2 mph1.9 kmh 29.26 in990.9 mb - 0.00 in0.0 mm 0.00 in0.0 mm
12:10 PM 37.8°F3.2°C 31.8°F-0.1°C 79% 1.2 mph SE1.9 kmh SE 2.3 mph3.7 kmh 29.26 in990.9 mb - 0.00 in0.0 mm 0.00 in0.0 mm
12:15 PM 37.8°F3.2°C 31.8°F-0.1°C 79% 2.3 mph SW3.7 kmh SW 2.3 mph3.7 kmh 29.26 in990.9 mb - 0.00 in0.0 mm 0.00 in0.0 mm
12:20 PM 37.9°F3.3°C 31.7°F-0.2°C 78% 2.3 mph SSW3.7 kmh SSW 3.5 mph5.6 kmh 29.26 in990.9 mb - 0.00 in0.0 mm 0.00 in0.0 mm
12:25 PM 38.1°F3.4°C 31.2°F-0.4°C 76% 2.3 mph SSW3.7 kmh SSW 2.3 mph3.7 kmh 29.26 in990.9 mb - 0.00 in0.0 mm 0.00 in0.0 mm
12:30 PM 38.1°F3.4°C 31.2°F-0.4°C 76% 3.5 mph WSW5.6 kmh WSW 3.5 mph5.6 kmh 29.25 in990.5 mb - 0.00 in0.0 mm 0.00 in0.0 mm
12:35 PM 38.1°F3.4°C 30.6°F-0.8°C 74% 3.5 mph SSW5.6 kmh SSW 3.5 mph5.6 kmh 29.25 in990.5 mb - 0.00 in0.0 mm 0.00 in0.0 mm
12:40 PM 38.1°F3.4°C 30.6°F-0.8°C 74% 2.3 mph WSW3.7 kmh WSW 2.3 mph3.7 kmh 29.25 in990.5 mb - 0.00 in0.0 mm 0.00 in0.0 mm
12:45 PM 38.3°F3.5°C 31.1°F-0.5°C 75% Calm Calm 1.2 mph1.9 kmh 29.25 in990.5 mb - 0.00 in0.0 mm 0.00 in0.0 mm
12:50 PM 38.7°F3.7°C 31.4°F-0.3°C 75% 2.3 mph WSW3.7 kmh WSW 2.3 mph3.7 kmh 29.25 in990.5 mb - 0.00 in0.0 mm 0.00 in0.0 mm
12:55 PM 38.5°F3.6°C 31.2°F-0.4°C 75% 3.5 mph S5.6 kmh S 4.6 mph7.4 kmh 29.25 in990.5 mb - 0.00 in0.0 mm 0.00 in0.0 mm
01:00 PM 38.3°F3.5°C 30.7°F-0.7°C 74% 2.3 mph SW3.7 kmh SW 3.5 mph5.6 kmh 29.25 in990.5 mb - 0.00 in0.0 mm 0.00 in0.0 mm
01:10 PM 38.5°F3.6°C 31.0°F-0.6°C 74% 1.2 mph NNW1.9 kmh NNW 2.3 mph3.7 kmh 29.25 in990.5 mb - 0.00 in0.0 mm 0.00 in0.0 mm
01:15 PM 38.5°F3.6°C 30.9°F-0.6°C 74% 2.3 mph SSW3.7 kmh SSW 2.3 mph3.7 kmh 29.25 in990.5 mb - 0.00 in0.0 mm 0.00 in0.0 mm
01:20 PM 38.5°F3.6°C 31.2°F-0.4°C 75% 2.3 mph SSW3.7 kmh SSW 2.3 mph3.7 kmh 29.25 in990.5 mb - 0.00 in0.0 mm 0.00 in0.0 mm
01:25 PM 38.5°F3.6°C 30.9°F-0.6°C 74% 2.3 mph SSW3.7 kmh SSW 2.3 mph3.7 kmh 29.25 in990.5 mb - 0.00 in0.0 mm 0.00 in0.0 mm
01:30 PM 38.7°F3.7°C 31.4°F-0.3°C 75% 2.3 mph SSW3.7 kmh SSW 3.5 mph5.6 kmh 29.25 in990.5 mb - 0.00 in0.0 mm 0.00 in0.0 mm
01:35 PM 38.6°F3.7°C 31.0°F-0.6°C 74% 1.2 mph WSW1.9 kmh WSW 2.3 mph3.7 kmh 29.25 in990.5 mb - 0.00 in0.0 mm 0.00 in0.0 mm
01:40 PM 38.7°F3.7°C 31.1°F-0.5°C 74% Calm Calm 1.2 mph1.9 kmh 29.25 in990.5 mb - 0.00 in0.0 mm 0.00 in0.0 mm
01:45 PM 38.7°F3.7°C 31.1°F-0.5°C 74% 3.5 mph SSW5.6 kmh SSW 3.5 mph5.6 kmh 29.25 in990.5 mb - 0.00 in0.0 mm 0.00 in0.0 mm
01:50 PM 38.7°F3.7°C 31.1°F-0.5°C 74% 1.2 mph SW1.9 kmh SW 2.3 mph3.7 kmh 29.25 in990.5 mb - 0.00 in0.0 mm 0.00 in0.0 mm
01:55 PM 38.5°F3.6°C 30.6°F-0.8°C 73% 2.3 mph WSW3.7 kmh WSW 3.5 mph5.6 kmh 29.25 in990.5 mb - 0.00 in0.0 mm 0.00 in0.0 mm
02:00 PM 38.3°F3.5°C 30.8°F-0.7°C 74% 2.3 mph SSW3.7 kmh SSW 2.3 mph3.7 kmh 29.25 in990.5 mb - 0.00 in0.0 mm 0.00 in0.0 mm
02:10 PM 38.3°F3.5°C 30.4°F-0.9°C 73% 1.2 mph SSW1.9 kmh SSW 1.2 mph1.9 kmh 29.25 in990.5 mb - 0.00 in0.0 mm 0.00 in0.0 mm
02:15 PM 38.3°F3.5°C 30.4°F-0.9°C 73% Calm Calm -- 29.25 in990.5 mb - 0.00 in0.0 mm 0.00 in0.0 mm
02:20 PM 38.3°F3.5°C 30.4°F-0.9°C 73% 1.2 mph WSW1.9 kmh WSW 2.3 mph3.7 kmh 29.25 in990.5 mb - 0.00 in0.0 mm 0.00 in0.0 mm
02:25 PM 38.1°F3.4°C 30.6°F-0.8°C 74% Calm Calm -- 29.25 in990.5 mb - 0.00 in0.0 mm 0.00 in0.0 mm
02:30 PM 38.1°F3.4°C 30.6°F-0.8°C 74% 2.3 mph SSW3.7 kmh SSW 3.5 mph5.6 kmh 29.25 in990.5 mb - 0.00 in0.0 mm 0.00 in0.0 mm
02:35 PM 38.3°F3.5°C 30.7°F-0.7°C 74% 1.2 mph SW1.9 kmh SW 1.2 mph1.9 kmh 29.25 in990.5 mb - 0.00 in0.0 mm 0.00 in0.0 mm
02:40 PM 38.1°F3.4°C 30.6°F-0.8°C 74% 1.2 mph SW1.9 kmh SW 2.3 mph3.7 kmh 29.25 in990.5 mb - 0.00 in0.0 mm 0.00 in0.0 mm
02:45 PM 38.3°F3.5°C 30.7°F-0.7°C 74% Calm Calm 1.2 mph1.9 kmh 29.25 in990.5 mb - 0.00 in0.0 mm 0.00 in0.0 mm
02:50 PM 38.3°F3.5°C 30.7°F-0.7°C 74% 2.3 mph S3.7 kmh S 3.5 mph5.6 kmh 29.25 in990.5 mb - 0.00 in0.0 mm 0.00 in0.0 mm
02:55 PM 38.1°F3.4°C 30.9°F-0.6°C 75% 2.3 mph ESE3.7 kmh ESE 3.5 mph5.6 kmh 29.25 in990.5 mb - 0.00 in0.0 mm 0.00 in0.0 mm
03:00 PM 38.1°F3.4°C 30.9°F-0.6°C 75% 3.5 mph SE5.6 kmh SE 3.5 mph5.6 kmh 29.26 in990.9 mb - 0.00 in0.0 mm 0.00 in0.0 mm
03:10 PM 37.9°F3.3°C 31.0°F-0.6°C 76% 4.6 mph ESE7.4 kmh ESE 4.6 mph7.4 kmh 29.26 in990.9 mb - 0.00 in0.0 mm 0.00 in0.0 mm
03:15 PM 37.8°F3.2°C 30.9°F-0.6°C 76% 3.5 mph ESE5.6 kmh ESE 3.5 mph5.6 kmh 29.26 in990.9 mb - 0.00 in0.0 mm 0.00 in0.0 mm
03:20 PM 37.6°F3.1°C 30.7°F-0.7°C 76% 3.5 mph SE5.6 kmh SE 3.5 mph5.6 kmh 29.26 in990.9 mb - 0.00 in0.0 mm 0.00 in0.0 mm
03:25 PM 37.6°F3.1°C 30.7°F-0.7°C 76% 4.6 mph SE7.4 kmh SE 5.8 mph9.3 kmh 29.26 in990.9 mb - 0.00 in0.0 mm 0.00 in0.0 mm
03:30 PM 37.4°F3.0°C 30.5°F-0.8°C 76% 3.5 mph SE5.6 kmh SE 3.5 mph5.6 kmh 29.26 in990.9 mb - 0.00 in0.0 mm 0.00 in0.0 mm
03:35 PM 37.2°F2.9°C 31.3°F-0.4°C 79% 3.5 mph ESE5.6 kmh ESE 3.5 mph5.6 kmh 29.26 in990.9 mb - 0.00 in0.0 mm 0.00 in0.0 mm
03:40 PM 37.0°F2.8°C 31.1°F-0.5°C 79% 3.5 mph SE5.6 kmh SE 4.6 mph7.4 kmh 29.26 in990.9 mb - 0.00 in0.0 mm 0.00 in0.0 mm
03:45 PM 37.0°F2.8°C 31.1°F-0.5°C 79% 3.5 mph SE5.6 kmh SE 4.6 mph7.4 kmh 29.26 in990.9 mb - 0.00 in0.0 mm 0.00 in0.0 mm
03:50 PM 37.0°F2.8°C 31.1°F-0.5°C 79% 3.5 mph ESE5.6 kmh ESE 3.5 mph5.6 kmh 29.26 in990.9 mb - 0.00 in0.0 mm 0.00 in0.0 mm
03:55 PM 36.9°F2.7°C 31.0°F-0.6°C 79% 3.5 mph ESE5.6 kmh ESE 3.5 mph5.6 kmh 29.26 in990.9 mb - 0.00 in0.0 mm 0.00 in0.0 mm
04:00 PM 36.7°F2.6°C 30.8°F-0.7°C 79% 3.5 mph ESE5.6 kmh ESE 3.5 mph5.6 kmh 29.26 in990.9 mb - 0.00 in0.0 mm 0.00 in0.0 mm
04:10 PM 36.7°F2.6°C 30.8°F-0.7°C 79% 3.5 mph SE5.6 kmh SE 4.6 mph7.4 kmh 29.26 in990.9 mb - 0.00 in0.0 mm 0.00 in0.0 mm
04:15 PM 36.5°F2.5°C 30.6°F-0.8°C 79% 3.5 mph ESE5.6 kmh ESE 3.5 mph5.6 kmh 29.26 in990.9 mb - 0.00 in0.0 mm 0.00 in0.0 mm
04:20 PM 36.5°F2.5°C 30.6°F-0.8°C 79% 2.3 mph ESE3.7 kmh ESE 3.5 mph5.6 kmh 29.26 in990.9 mb - 0.00 in0.0 mm 0.00 in0.0 mm
04:25 PM 36.5°F2.5°C 30.6°F-0.8°C 79% 3.5 mph SE5.6 kmh SE 3.5 mph5.6 kmh 29.26 in990.9 mb - 0.00 in0.0 mm 0.00 in0.0 mm
04:30 PM 36.3°F2.4°C 30.4°F-0.9°C 79% 3.5 mph SSE5.6 kmh SSE 3.5 mph5.6 kmh 29.26 in990.9 mb - 0.00 in0.0 mm 0.00 in0.0 mm
04:35 PM 36.3°F2.4°C 30.4°F-0.9°C 79% 2.3 mph SE3.7 kmh SE 2.3 mph3.7 kmh 29.26 in990.9 mb - 0.00 in0.0 mm 0.00 in0.0 mm
04:40 PM 36.1°F2.3°C 30.3°F-0.9°C 79% 2.3 mph SSE3.7 kmh SSE 3.5 mph5.6 kmh 29.26 in990.9 mb - 0.00 in0.0 mm 0.00 in0.0 mm
04:45 PM 36.1°F2.3°C 30.3°F-0.9°C 79% 1.2 mph SE1.9 kmh SE 2.3 mph3.7 kmh 29.26 in990.9 mb - 0.00 in0.0 mm 0.00 in0.0 mm
04:50 PM 36.0°F2.2°C 30.1°F-1.1°C 79% 2.3 mph SSE3.7 kmh SSE 3.5 mph5.6 kmh 29.26 in990.9 mb - 0.00 in0.0 mm 0.00 in0.0 mm
04:55 PM 36.0°F2.2°C 30.4°F-0.9°C 80% 1.2 mph SE1.9 kmh SE 2.3 mph3.7 kmh 29.26 in990.9 mb - 0.00 in0.0 mm 0.00 in0.0 mm
05:00 PM 36.0°F2.2°C 30.4°F-0.9°C 80% 2.3 mph SE3.7 kmh SE 2.3 mph3.7 kmh 29.26 in990.9 mb - 0.00 in0.0 mm 0.00 in0.0 mm
05:10 PM 35.8°F2.1°C 30.2°F-1.0°C 80% 2.3 mph ESE3.7 kmh ESE 2.3 mph3.7 kmh 29.26 in990.9 mb - 0.00 in0.0 mm 0.00 in0.0 mm
05:15 PM 35.8°F2.1°C 30.2°F-1.0°C 80% 1.2 mph ESE1.9 kmh ESE 2.3 mph3.7 kmh 29.27 in991.2 mb - 0.00 in0.0 mm 0.00 in0.0 mm
05:20 PM 35.6°F2.0°C 30.0°F-1.1°C 80% 1.2 mph SE1.9 kmh SE 2.3 mph3.7 kmh 29.27 in991.2 mb - 0.00 in0.0 mm 0.00 in0.0 mm
05:25 PM 35.6°F2.0°C 30.0°F-1.1°C 80% 1.2 mph ESE1.9 kmh ESE 2.3 mph3.7 kmh 29.27 in991.2 mb - 0.00 in0.0 mm 0.00 in0.0 mm
05:30 PM 35.6°F2.0°C 30.3°F-0.9°C 81% 2.3 mph ESE3.7 kmh ESE 2.3 mph3.7 kmh 29.27 in991.2 mb - 0.00 in0.0 mm 0.00 in0.0 mm
05:35 PM 35.4°F1.9°C 30.2°F-1.0°C 81% 3.5 mph SE5.6 kmh SE 3.5 mph5.6 kmh 29.27 in991.2 mb - 0.00 in0.0 mm 0.00 in0.0 mm
05:40 PM 35.4°F1.9°C 30.2°F-1.0°C 81% 2.3 mph ESE3.7 kmh ESE 2.3 mph3.7 kmh 29.27 in991.2 mb - 0.00 in0.0 mm 0.00 in0.0 mm
05:45 PM 35.4°F1.9°C 30.2°F-1.0°C 81% 2.3 mph ESE3.7 kmh ESE 3.5 mph5.6 kmh 29.27 in991.2 mb - 0.00 in0.0 mm 0.00 in0.0 mm
05:50 PM 35.4°F1.9°C 30.2°F-1.0°C 81% 2.3 mph ESE3.7 kmh ESE 3.5 mph5.6 kmh 29.27 in991.2 mb - 0.00 in0.0 mm 0.00 in0.0 mm
05:55 PM 35.2°F1.8°C 30.0°F-1.1°C 81% 2.3 mph ESE3.7 kmh ESE 2.3 mph3.7 kmh 29.27 in991.2 mb - 0.00 in0.0 mm 0.00 in0.0 mm
06:00 PM 35.2°F1.8°C 30.0°F-1.1°C 81% 2.3 mph ESE3.7 kmh ESE 2.3 mph3.7 kmh 29.27 in991.2 mb - 0.00 in0.0 mm 0.00 in0.0 mm
06:10 PM 35.2°F1.8°C 30.0°F-1.1°C 81% 2.3 mph ESE3.7 kmh ESE 2.3 mph3.7 kmh 29.27 in991.2 mb - 0.00 in0.0 mm 0.00 in0.0 mm
06:15 PM 35.1°F1.7°C 29.8°F-1.2°C 81% 1.2 mph SE1.9 kmh SE 3.5 mph5.6 kmh 29.29 in991.9 mb - 0.00 in0.0 mm 0.00 in0.0 mm
06:20 PM 35.1°F1.7°C 29.8°F-1.2°C 81% 2.3 mph ESE3.7 kmh ESE 3.5 mph5.6 kmh 29.29 in991.9 mb - 0.00 in0.0 mm 0.00 in0.0 mm
06:25 PM 35.1°F1.7°C 29.8°F-1.2°C 81% 2.3 mph ESE3.7 kmh ESE 2.3 mph3.7 kmh 29.29 in991.9 mb - 0.00 in0.0 mm 0.00 in0.0 mm
06:30 PM 34.9°F1.6°C 29.9°F-1.2°C 82% 2.3 mph ESE3.7 kmh ESE 2.3 mph3.7 kmh 29.27 in991.2 mb - 0.00 in0.0 mm 0.00 in0.0 mm
06:35 PM 34.9°F1.6°C 29.9°F-1.2°C 82% 2.3 mph ESE3.7 kmh ESE 2.3 mph3.7 kmh 29.27 in991.2 mb - 0.00 in0.0 mm 0.00 in0.0 mm
06:40 PM 34.9°F1.6°C 29.9°F-1.2°C 82% 1.2 mph ESE1.9 kmh ESE 2.3 mph3.7 kmh 29.27 in991.2 mb - 0.00 in0.0 mm 0.00 in0.0 mm
06:45 PM 34.7°F1.5°C 29.8°F-1.2°C 82% 1.2 mph ESE1.9 kmh ESE 1.2 mph1.9 kmh 29.28 in991.5 mb - 0.00 in0.0 mm 0.00 in0.0 mm
06:50 PM 34.7°F1.5°C 29.8°F-1.2°C 82% 1.2 mph ESE1.9 kmh ESE 2.3 mph3.7 kmh 29.28 in991.5 mb - 0.00 in0.0 mm 0.00 in0.0 mm
06:55 PM 34.7°F1.5°C 29.8°F-1.2°C 82% 1.2 mph ESE1.9 kmh ESE 2.3 mph3.7 kmh 29.28 in991.5 mb - 0.00 in0.0 mm 0.00 in0.0 mm
07:00 PM 34.5°F1.4°C 29.6°F-1.3°C 82% Calm Calm 1.2 mph1.9 kmh 29.28 in991.5 mb - 0.00 in0.0 mm 0.00 in0.0 mm
07:10 PM 34.5°F1.4°C 29.6°F-1.3°C 82% 1.2 mph ESE1.9 kmh ESE 2.3 mph3.7 kmh 29.28 in991.5 mb - 0.00 in0.0 mm 0.00 in0.0 mm
07:15 PM 34.3°F1.3°C 29.4°F-1.4°C 82% 1.2 mph ESE1.9 kmh ESE 2.3 mph3.7 kmh 29.28 in991.5 mb - 0.00 in0.0 mm 0.00 in0.0 mm
07:20 PM 34.3°F1.3°C 29.4°F-1.4°C 82% 1.2 mph ESE1.9 kmh ESE 2.3 mph3.7 kmh 29.28 in991.5 mb - 0.00 in0.0 mm 0.00 in0.0 mm
07:25 PM 34.3°F1.3°C 29.4°F-1.4°C 82% Calm Calm 1.2 mph1.9 kmh 29.28 in991.5 mb - 0.00 in0.0 mm 0.00 in0.0 mm
07:30 PM 34.2°F1.2°C 29.5°F-1.4°C 83% Calm Calm -- 29.28 in991.5 mb - 0.00 in0.0 mm 0.00 in0.0 mm
07:35 PM 34.2°F1.2°C 29.5°F-1.4°C 83% Calm Calm -- 29.28 in991.5 mb - 0.00 in0.0 mm 0.00 in0.0 mm
07:40 PM 34.0°F1.1°C 29.4°F-1.4°C 83% Calm Calm 1.2 mph1.9 kmh 29.28 in991.5 mb - 0.00 in0.0 mm 0.00 in0.0 mm
07:45 PM 34.0°F1.1°C 29.4°F-1.4°C 83% Calm Calm -- 29.28 in991.5 mb - 0.00 in0.0 mm 0.00 in0.0 mm
07:50 PM 33.8°F1.0°C 29.2°F-1.6°C 83% Calm Calm -- 29.28 in991.5 mb - 0.00 in0.0 mm 0.00 in0.0 mm
07:55 PM 33.8°F1.0°C 29.2°F-1.6°C 83% Calm Calm -- 29.28 in991.5 mb - 0.00 in0.0 mm 0.00 in0.0 mm
08:00 PM 33.8°F1.0°C 29.2°F-1.6°C 83% Calm Calm -- 29.29 in991.9 mb - 0.00 in0.0 mm 0.00 in0.0 mm
08:10 PM 33.6°F0.9°C 29.0°F-1.7°C 83% 1.2 mph ESE1.9 kmh ESE 1.2 mph1.9 kmh 29.29 in991.9 mb - 0.00 in0.0 mm 0.00 in0.0 mm
08:15 PM 33.4°F0.8°C 28.8°F-1.8°C 83% Calm Calm -- 29.29 in991.9 mb - 0.00 in0.0 mm 0.00 in0.0 mm
08:20 PM 33.4°F0.8°C 28.8°F-1.8°C 83% 1.2 mph ESE1.9 kmh ESE 1.2 mph1.9 kmh 29.29 in991.9 mb - 0.00 in0.0 mm 0.00 in0.0 mm
08:25 PM 33.4°F0.8°C 29.1°F-1.6°C 84% 1.2 mph ESE1.9 kmh ESE 1.2 mph1.9 kmh 29.29 in991.9 mb - 0.00 in0.0 mm 0.00 in0.0 mm
08:30 PM 33.4°F0.8°C 29.1°F-1.6°C 84% Calm Calm -- 29.29 in991.9 mb - 0.00 in0.0 mm 0.00 in0.0 mm
08:35 PM 33.4°F0.8°C 29.1°F-1.6°C 84% 1.2 mph ESE1.9 kmh ESE 1.2 mph1.9 kmh 29.29 in991.9 mb - 0.00 in0.0 mm 0.00 in0.0 mm
08:40 PM 33.4°F0.8°C 29.1°F-1.6°C 84% Calm Calm 2.3 mph3.7 kmh 29.29 in991.9 mb - 0.00 in0.0 mm 0.00 in0.0 mm
08:45 PM 33.4°F0.8°C 29.1°F-1.6°C 84% Calm Calm -- 29.29 in991.9 mb - 0.00 in0.0 mm 0.00 in0.0 mm
08:50 PM 33.3°F0.7°C 28.9°F-1.7°C 84% Calm Calm 1.2 mph1.9 kmh 29.29 in991.9 mb - 0.00 in0.0 mm 0.00 in0.0 mm
08:55 PM 33.3°F0.7°C 28.9°F-1.7°C 84% Calm Calm -- 29.29 in991.9 mb - 0.00 in0.0 mm 0.00 in0.0 mm
09:00 PM 33.3°F0.7°C 28.9°F-1.7°C 84% Calm Calm -- 29.29 in991.9 mb - 0.00 in0.0 mm 0.00 in0.0 mm
09:10 PM 33.1°F0.6°C 28.8°F-1.8°C 84% Calm Calm -- 29.29 in991.9 mb - 0.00 in0.0 mm 0.00 in0.0 mm
09:15 PM 33.1°F0.6°C 28.8°F-1.8°C 84% Calm Calm -- 29.29 in991.9 mb - 0.00 in0.0 mm 0.00 in0.0 mm
09:20 PM 33.1°F0.6°C 28.8°F-1.8°C 84% Calm Calm -- 29.29 in991.9 mb - 0.00 in0.0 mm 0.00 in0.0 mm
09:25 PM 33.1°F0.6°C 28.8°F-1.8°C 84% Calm Calm -- 29.29 in991.9 mb - 0.00 in0.0 mm 0.00 in0.0 mm
09:30 PM 33.1°F0.6°C 28.8°F-1.8°C 84% Calm Calm -- 29.29 in991.9 mb - 0.00 in0.0 mm 0.00 in0.0 mm
09:35 PM 33.1°F0.6°C 28.8°F-1.8°C 84% Calm Calm -- 29.29 in991.9 mb - 0.00 in0.0 mm 0.00 in0.0 mm
09:40 PM 33.1°F0.6°C 28.8°F-1.8°C 84% Calm Calm -- 29.29 in991.9 mb - 0.00 in0.0 mm 0.00 in0.0 mm
09:45 PM 32.9°F0.5°C 28.6°F-1.9°C 84% Calm Calm -- 29.30 in992.2 mb - 0.00 in0.0 mm 0.00 in0.0 mm
09:50 PM 32.9°F0.5°C 28.6°F-1.9°C 84% Calm Calm -- 29.30 in992.2 mb - 0.00 in0.0 mm 0.00 in0.0 mm
09:55 PM 32.9°F0.5°C 28.6°F-1.9°C 84% Calm Calm 1.2 mph1.9 kmh 29.30 in992.2 mb - 0.00 in0.0 mm 0.00 in0.0 mm
10:00 PM 32.9°F0.5°C 28.6°F-1.9°C 84% Calm Calm -- 29.30 in992.2 mb - 0.00 in0.0 mm 0.00 in0.0 mm
10:10 PM 32.9°F0.5°C 29.2°F-1.6°C 86% 2.3 mph E3.7 kmh E 2.3 mph3.7 kmh 29.30 in992.2 mb - 0.00 in0.0 mm 0.00 in0.0 mm
10:15 PM 32.9°F0.5°C 29.2°F-1.6°C 86% 2.3 mph NNE3.7 kmh NNE 2.3 mph3.7 kmh 29.30 in992.2 mb - 0.00 in0.0 mm 0.00 in0.0 mm
10:20 PM 32.6°F0.3°C 28.9°F-1.7°C 86% 1.2 mph NNE1.9 kmh NNE 2.3 mph3.7 kmh 29.30 in992.2 mb - 0.00 in0.0 mm 0.00 in0.0 mm
10:25 PM 32.5°F0.3°C 28.8°F-1.8°C 86% 1.2 mph NNE1.9 kmh NNE -- 29.30 in992.2 mb - 0.00 in0.0 mm 0.00 in0.0 mm
10:30 PM 32.4°F0.2°C 28.6°F-1.9°C 86% Calm Calm -- 29.29 in991.9 mb - 0.00 in0.0 mm 0.00 in0.0 mm
10:35 PM 32.2°F0.1°C 28.5°F-1.9°C 86% Calm Calm -- 29.29 in991.9 mb - 0.00 in0.0 mm 0.00 in0.0 mm
10:40 PM 32.4°F0.2°C 28.6°F-1.9°C 86% Calm Calm -- 29.29 in991.9 mb - 0.00 in0.0 mm 0.00 in0.0 mm
10:45 PM 32.2°F0.1°C 28.5°F-1.9°C 86% 1.2 mph NNE1.9 kmh NNE 2.3 mph3.7 kmh 29.30 in992.2 mb - 0.00 in0.0 mm 0.00 in0.0 mm
10:50 PM 32.2°F0.1°C 28.5°F-1.9°C 86% 2.3 mph NNE3.7 kmh NNE 2.3 mph3.7 kmh 29.30 in992.2 mb - 0.00 in0.0 mm 0.00 in0.0 mm
10:55 PM 32.2°F0.1°C 28.5°F-1.9°C 86% 1.2 mph NNE1.9 kmh NNE 2.3 mph3.7 kmh 29.30 in992.2 mb - 0.00 in0.0 mm 0.00 in0.0 mm
11:00 PM 32.0°F0.0°C 28.3°F-2.1°C 86% Calm Calm -- 29.29 in991.9 mb - 0.00 in0.0 mm 0.00 in0.0 mm
11:10 PM 32.0°F0.0°C 28.3°F-2.1°C 86% Calm Calm -- 29.29 in991.9 mb - 0.00 in0.0 mm 0.00 in0.0 mm
11:15 PM 32.0°F0.0°C 28.3°F-2.1°C 86% 1.2 mph NNE1.9 kmh NNE 2.3 mph3.7 kmh 29.29 in991.9 mb - 0.00 in0.0 mm 0.00 in0.0 mm
11:20 PM 32.0°F0.0°C 28.3°F-2.1°C 86% 1.2 mph NNE1.9 kmh NNE 1.2 mph1.9 kmh 29.29 in991.9 mb - 0.00 in0.0 mm 0.00 in0.0 mm
11:25 PM 32.0°F0.0°C 28.3°F-2.1°C 86% 1.2 mph NNE1.9 kmh NNE 1.2 mph1.9 kmh 29.29 in991.9 mb - 0.00 in0.0 mm 0.00 in0.0 mm
11:30 PM 32.0°F0.0°C 28.3°F-2.1°C 86% 1.2 mph NNE1.9 kmh NNE 2.3 mph3.7 kmh 29.29 in991.9 mb - 0.00 in0.0 mm 0.00 in0.0 mm
11:35 PM 32.0°F0.0°C 28.3°F-2.1°C 86% 1.2 mph NE1.9 kmh NE 2.3 mph3.7 kmh 29.29 in991.9 mb - 0.00 in0.0 mm 0.00 in0.0 mm
11:40 PM 32.0°F0.0°C 28.3°F-2.1°C 86% 1.2 mph NE1.9 kmh NE 1.2 mph1.9 kmh 29.29 in991.9 mb - 0.00 in0.0 mm 0.00 in0.0 mm
11:45 PM 32.0°F0.0°C 28.3°F-2.1°C 86% 1.2 mph NE1.9 kmh NE 2.3 mph3.7 kmh 29.30 in992.2 mb - 0.00 in0.0 mm 0.00 in0.0 mm
11:50 PM 32.1°F0.1°C 28.4°F-2.0°C 86% 2.3 mph ENE3.7 kmh ENE 2.3 mph3.7 kmh 29.30 in992.2 mb - 0.00 in0.0 mm 0.00 in0.0 mm
11:55 PM 32.2°F0.1°C 28.5°F-1.9°C 86% 1.2 mph NE1.9 kmh NE 2.3 mph3.7 kmh 29.30 in992.2 mb - 0.00 in0.0 mm 0.00 in0.0 mm